createdAt,value
2024-04-12T00:03:44.625Z,4.07
2024-04-12T00:07:36.759Z,3.55
2024-04-12T00:11:23.811Z,3.42
2024-04-12T00:15:19.046Z,3.65
2024-04-12T00:19:09.222Z,3.13
2024-04-12T00:22:57.493Z,3.72
2024-04-12T00:26:45.064Z,4.32
2024-04-12T00:30:39.345Z,3.63
2024-04-12T00:34:28.290Z,3.83
2024-04-12T00:38:18.132Z,3.92
2024-04-12T00:42:04.085Z,3.72
2024-04-12T00:45:53.535Z,3.80
2024-04-12T00:49:41.267Z,3.85
2024-04-12T00:53:30.227Z,3.90
2024-04-12T00:57:16.092Z,3.95
2024-04-12T01:01:12.186Z,3.72
2024-04-12T01:04:58.611Z,4.03
2024-04-12T01:08:48.269Z,4.05
2024-04-12T01:12:34.266Z,3.95
2024-04-12T01:16:19.719Z,4.40
2024-04-12T01:20:06.222Z,3.90
2024-04-12T01:23:55.653Z,3.85
2024-04-12T01:27:46.481Z,3.35
2024-04-12T01:31:36.148Z,3.78
2024-04-12T01:35:22.680Z,3.83
2024-04-12T01:39:13.279Z,3.80
2024-04-12T01:43:01.838Z,4.05
2024-04-12T01:46:44.820Z,3.60
2024-04-12T01:50:30.439Z,3.60
2024-04-12T01:54:19.047Z,3.60
2024-04-12T01:58:07.867Z,4.25
2024-04-12T02:01:53.598Z,3.92
2024-04-12T02:05:39.477Z,4.45
2024-04-12T02:09:30.462Z,3.90
2024-04-12T02:13:19.551Z,4.55
2024-04-12T02:17:05.956Z,4.15
2024-04-12T02:20:50.823Z,4.28
2024-04-12T02:24:36.347Z,3.97
2024-04-12T02:28:23.184Z,4.45
2024-04-12T02:32:09.764Z,4.82
2024-04-12T02:36:03.712Z,4.07
2024-04-12T02:39:49.064Z,4.05
2024-04-12T02:43:37.106Z,4.93
2024-04-12T02:47:22.508Z,4.45
2024-04-12T02:51:08.422Z,4.18
2024-04-12T02:54:53.491Z,4.68
2024-04-12T02:58:43.234Z,4.40
2024-04-12T03:02:30.613Z,3.75
2024-04-12T03:06:18.584Z,3.90
2024-04-12T03:10:07.568Z,4.05
2024-04-12T03:13:57.968Z,4.13
2024-04-12T03:17:44.744Z,4.53
2024-04-12T03:21:31.893Z,4.32
2024-04-12T03:25:17.897Z,4.38
2024-04-12T03:29:07.482Z,4.00
2024-04-12T03:32:51.135Z,3.97
2024-04-12T03:36:55.097Z,4.15
2024-04-12T03:40:47.031Z,4.68
2024-04-12T03:44:36.005Z,4.20
2024-04-12T03:48:21.920Z,4.88
2024-04-12T03:52:14.084Z,4.63
2024-04-12T03:55:59.730Z,5.00
2024-04-12T03:59:48.241Z,4.68
2024-04-12T04:03:37.410Z,5.45
2024-04-12T04:07:24.302Z,4.38
2024-04-12T04:11:09.454Z,4.07
2024-04-12T04:14:57.567Z,4.25
2024-04-12T04:18:43.339Z,4.50
2024-04-12T04:22:40.785Z,4.55
2024-04-12T04:26:26.983Z,3.80
2024-04-12T04:30:18.945Z,3.88
2024-04-12T04:34:06.617Z,4.60
2024-04-12T04:37:53.838Z,4.43
2024-04-12T04:41:37.175Z,4.25
2024-04-12T04:45:32.966Z,3.80
2024-04-12T04:49:19.615Z,4.63
2024-04-12T04:53:05.192Z,4.60
2024-04-12T04:56:48.702Z,3.95
2024-04-12T05:00:42.764Z,3.78
2024-04-12T05:04:33.015Z,4.15
2024-04-12T05:08:18.505Z,4.25
2024-04-12T05:12:04.262Z,4.65
2024-04-12T05:15:53.788Z,4.53
2024-04-12T05:19:42.202Z,4.70
2024-04-12T05:23:30.246Z,4.63
2024-04-12T05:27:16.452Z,4.60
2024-04-12T05:31:13.387Z,4.35
2024-04-12T05:34:59.660Z,4.45
2024-04-12T05:38:42.913Z,3.97
2024-04-12T05:42:28.795Z,4.07
2024-04-12T05:46:16.754Z,3.47
2024-04-12T05:50:03.143Z,3.88
2024-04-12T05:53:52.901Z,4.57
2024-04-12T05:57:35.841Z,3.80
2024-04-12T06:01:26.757Z,3.35
2024-04-12T06:05:19.827Z,3.65
2024-04-12T06:09:11.757Z,3.95
2024-04-12T06:13:07.406Z,3.10
2024-04-12T06:16:58.131Z,4.20
2024-04-12T06:20:41.731Z,3.80
2024-04-12T06:24:30.838Z,3.55
2024-04-12T06:28:17.466Z,3.58
2024-04-12T06:32:07.039Z,3.80
2024-04-12T06:35:50.923Z,3.55
2024-04-12T06:39:36.269Z,3.78
2024-04-12T06:43:22.209Z,3.13
2024-04-12T06:47:12.151Z,3.10
2024-04-12T06:50:59.580Z,2.88
2024-04-12T06:54:46.649Z,3.50
2024-04-12T06:58:32.580Z,2.88
2024-04-12T07:02:25.519Z,2.60
2024-04-12T07:06:14.754Z,2.88
2024-04-12T07:10:11.883Z,3.10
2024-04-12T07:13:57.852Z,2.90
2024-04-12T07:17:49.442Z,2.80
2024-04-12T07:21:37.336Z,2.83
2024-04-12T07:25:25.064Z,2.95
2024-04-12T07:29:11.571Z,3.00
2024-04-12T07:32:59.893Z,2.53
2024-04-12T07:36:45.399Z,2.90
2024-04-12T07:40:37.152Z,2.28
2024-04-12T07:44:25.610Z,2.50
2024-04-12T07:48:30.718Z,2.45
2024-04-12T07:52:18.988Z,2.00
2024-04-12T07:56:10.362Z,2.70
2024-04-12T07:59:57.002Z,2.58
2024-04-12T08:03:52.364Z,3.13
2024-04-12T08:07:39.571Z,3.35
2024-04-12T08:11:34.572Z,2.70
2024-04-12T08:15:19.954Z,3.53
2024-04-12T08:19:14.220Z,3.33
2024-04-12T08:23:00.395Z,3.10
2024-04-12T08:26:50.524Z,3.58
2024-04-12T08:30:33.921Z,3.95
2024-04-12T08:34:22.356Z,3.60
2024-04-12T08:38:14.040Z,4.30
2024-04-12T08:42:06.010Z,3.38
2024-04-12T08:45:49.932Z,3.60
2024-04-12T08:49:46.574Z,3.75
2024-04-12T08:53:33.035Z,4.00
2024-04-12T08:57:19.108Z,3.90
2024-04-12T09:04:50.633Z,4.05
2024-04-12T09:08:42.650Z,4.03
2024-04-12T09:12:28.863Z,3.90
2024-04-12T09:16:11.544Z,3.85
2024-04-12T09:20:00.966Z,4.30
2024-04-12T09:23:51.717Z,3.88
2024-04-12T09:27:45.388Z,3.55
2024-04-12T09:31:46.947Z,3.30
2024-04-12T09:35:40.573Z,2.85
2024-04-12T09:39:42.499Z,3.30
2024-04-12T09:43:33.019Z,3.38
2024-04-12T09:47:36.918Z,3.50
2024-04-12T09:51:41.006Z,3.35
2024-04-12T09:55:43.182Z,2.60
2024-04-12T09:59:48.454Z,3.22
2024-04-12T10:03:54.246Z,3.45
2024-04-12T10:07:59.093Z,3.03
2024-04-12T10:11:57.785Z,2.92
2024-04-12T10:15:58.898Z,2.38
2024-04-12T10:20:28.054Z,1.75
2024-04-12T10:24:33.082Z,1.73
2024-04-12T10:28:34.394Z,1.58
2024-04-12T10:32:39.560Z,1.30
2024-04-12T10:36:41.924Z,1.80
2024-04-12T10:40:32.183Z,1.80
2024-04-12T10:44:18.169Z,1.75
2024-04-12T10:48:06.308Z,1.80
2024-04-12T10:51:54.175Z,1.70
2024-04-12T10:55:45.694Z,1.73
2024-04-12T10:59:31.894Z,1.60
2024-04-12T11:03:22.334Z,1.80
2024-04-12T11:07:08.798Z,2.13
2024-04-12T11:11:17.347Z,1.60
2024-04-12T11:15:15.198Z,1.63
2024-04-12T11:19:16.817Z,1.55
2024-04-12T11:23:23.222Z,1.50
2024-04-12T11:27:30.196Z,1.40
2024-04-12T11:31:21.404Z,1.40
2024-04-12T11:35:07.448Z,1.67
2024-04-12T11:38:55.525Z,1.60
2024-04-12T11:42:41.330Z,1.45
2024-04-12T11:46:28.205Z,1.50
2024-04-12T11:50:12.231Z,1.60
2024-04-12T11:57:46.451Z,1.63
2024-04-12T12:01:33.387Z,1.90
2024-04-12T12:05:19.394Z,2.50
2024-04-12T12:09:13.435Z,1.85
2024-04-12T12:13:02.775Z,2.08
2024-04-12T12:16:48.893Z,1.70
2024-04-12T12:20:34.350Z,2.17
2024-04-12T12:24:17.527Z,1.90
2024-04-12T12:28:05.653Z,2.13
2024-04-12T12:31:56.343Z,1.63
2024-04-12T12:35:41.116Z,1.88
2024-04-12T12:39:32.342Z,1.92
2024-04-12T12:43:23.946Z,2.00
2024-04-12T12:47:07.736Z,2.17
2024-04-12T12:50:54.573Z,2.10
2024-04-12T12:54:42.897Z,2.13
2024-04-12T12:58:29.365Z,1.80
2024-04-12T13:02:17.526Z,1.30
2024-04-12T13:06:08.447Z,1.60
2024-04-12T13:09:56.992Z,1.30
2024-04-12T13:13:44.938Z,1.17
2024-04-12T13:17:37.940Z,1.30
2024-04-12T13:21:25.164Z,1.25
2024-04-12T13:25:13.195Z,1.00
2024-04-12T13:29:01.852Z,1.52
2024-04-12T13:32:49.833Z,1.27
2024-04-12T13:36:36.212Z,2.00
2024-04-12T13:40:22.046Z,3.03
2024-04-12T13:44:10.326Z,2.83
2024-04-12T13:48:11.788Z,1.95
2024-04-12T13:51:56.969Z,2.50
2024-04-12T13:55:44.519Z,2.30
2024-04-12T13:59:39.534Z,1.85
2024-04-12T14:03:25.972Z,2.10
2024-04-12T14:07:12.245Z,1.70
2024-04-12T14:10:55.297Z,2.05
2024-04-12T14:14:43.179Z,2.00
2024-04-12T14:18:31.271Z,2.03
2024-04-12T14:22:16.932Z,2.60
2024-04-12T14:26:00.130Z,1.92
2024-04-12T14:29:47.879Z,2.03
2024-04-12T14:33:34.407Z,2.03
2024-04-12T14:37:19.950Z,2.20
2024-04-12T14:41:09.135Z,2.08
2024-04-12T14:44:55.108Z,2.55
2024-04-12T14:48:44.088Z,2.30
2024-04-12T14:52:30.187Z,2.00
2024-04-12T14:56:18.272Z,2.38
2024-04-12T15:00:07.146Z,2.63
2024-04-12T15:04:08.726Z,2.40
2024-04-12T15:08:10.057Z,2.90
2024-04-12T15:12:11.620Z,2.80
2024-04-12T15:16:15.826Z,2.95
2024-04-12T15:20:17.452Z,3.10
2024-04-12T15:24:18.592Z,4.00
2024-04-12T15:28:20.119Z,3.10
2024-04-12T15:32:24.523Z,2.97
2024-04-12T15:36:26.543Z,3.10
2024-04-12T15:40:28.868Z,3.70
2024-04-12T15:44:30.227Z,3.03
2024-04-12T15:48:18.451Z,3.50
2024-04-12T15:52:11.678Z,3.70
2024-04-12T15:56:20.470Z,3.38
2024-04-12T16:00:23.218Z,2.97
2024-04-12T16:04:27.747Z,3.90
2024-04-12T16:08:29.063Z,3.30
2024-04-12T16:12:15.003Z,3.65
2024-04-12T16:16:01.134Z,3.60
2024-04-12T16:19:50.805Z,3.70
2024-04-12T16:23:36.462Z,4.30
2024-04-12T16:27:19.433Z,3.88
2024-04-12T16:31:06.750Z,3.35
2024-04-12T16:35:01.425Z,3.53
2024-04-12T16:38:47.079Z,4.00
2024-04-12T16:42:32.766Z,3.97
2024-04-12T16:46:18.545Z,4.22
2024-04-12T16:50:07.894Z,4.60
2024-04-12T16:53:55.655Z,4.00
2024-04-12T16:57:41.155Z,4.15
2024-04-12T17:01:24.559Z,4.03
2024-04-12T17:05:12.756Z,4.18
2024-04-12T17:08:59.253Z,4.15
2024-04-12T17:12:42.481Z,5.97
2024-04-12T17:16:28.338Z,4.70
2024-04-12T17:20:17.267Z,4.78
2024-04-12T17:24:00.313Z,5.78
2024-04-12T17:27:49.374Z,5.82
2024-04-12T17:31:35.067Z,5.00
2024-04-12T17:35:20.756Z,5.25
2024-04-12T17:39:10.046Z,4.85
2024-04-12T17:42:55.761Z,4.65
2024-04-12T17:46:38.938Z,5.20
2024-04-12T17:50:27.423Z,4.80
2024-04-12T17:54:13.701Z,4.63
2024-04-12T17:57:59.733Z,4.45
2024-04-12T18:01:43.686Z,7.72
2024-04-12T18:05:32.335Z,12.82
2024-04-12T18:09:18.434Z,10.27
2024-04-12T18:13:04.434Z,21.85
2024-04-12T18:16:50.353Z,29.83
2024-04-12T18:20:39.189Z,24.85
2024-04-12T18:24:26.240Z,19.02
2024-04-12T18:28:09.274Z,10.63
2024-04-12T18:31:59.195Z,9.48
2024-04-12T18:35:50.585Z,7.65
2024-04-12T18:39:52.296Z,8.02
2024-04-12T18:43:53.977Z,6.93
2024-04-12T18:47:39.804Z,6.05
2024-04-12T18:51:28.296Z,6.32
2024-04-12T18:55:14.623Z,6.57
2024-04-12T18:58:57.897Z,6.82
2024-04-12T19:02:43.920Z,8.38
2024-04-12T19:06:33.441Z,10.05
2024-04-12T19:10:19.150Z,8.73
2024-04-12T19:14:05.499Z,7.82
2024-04-12T19:17:48.509Z,10.00
2024-04-12T19:21:36.957Z,10.05
2024-04-12T19:25:22.653Z,8.63
2024-04-12T19:29:05.793Z,10.77
2024-04-12T19:32:52.072Z,7.45
2024-04-12T19:36:44.464Z,6.57
2024-04-12T19:40:30.177Z,7.43
2024-04-12T19:44:16.156Z,7.45
2024-04-12T19:47:59.178Z,8.00
2024-04-12T19:51:48.530Z,8.25
2024-04-12T19:55:31.499Z,8.73
2024-04-12T19:59:17.570Z,8.52
2024-04-12T20:03:00.569Z,8.32
2024-04-12T20:06:48.548Z,7.82
2024-04-12T20:10:34.329Z,8.65
2024-04-12T20:14:19.878Z,8.38
2024-04-12T20:18:06.228Z,7.80
2024-04-12T20:21:55.063Z,7.85
2024-04-12T20:25:40.736Z,7.78
2024-04-12T20:29:28.225Z,8.63
2024-04-12T20:33:24.316Z,7.97
2024-04-12T20:37:12.607Z,9.43
2024-04-12T20:40:59.470Z,8.93
2024-04-12T20:44:44.692Z,9.75
2024-04-12T20:48:30.568Z,8.70
2024-04-12T20:52:21.773Z,10.23
2024-04-12T20:56:05.412Z,8.98
2024-04-12T20:59:53.166Z,9.13
2024-04-12T21:03:36.328Z,8.95
2024-04-12T21:07:25.501Z,8.88
2024-04-12T21:11:18.520Z,9.70
2024-04-12T21:15:06.037Z,9.02
2024-04-12T21:18:52.241Z,9.02
2024-04-12T21:22:37.888Z,9.25
2024-04-12T21:26:26.335Z,9.25
2024-04-12T21:30:13.317Z,9.82
2024-04-12T21:33:59.359Z,9.32
2024-04-12T21:37:47.640Z,10.18
2024-04-12T21:41:33.291Z,9.70
2024-04-12T21:45:19.111Z,9.38
2024-04-12T21:49:05.827Z,8.77
2024-04-12T21:52:51.447Z,9.15
2024-04-12T21:56:36.801Z,9.95
2024-04-12T22:00:23.781Z,8.68
2024-04-12T22:04:09.041Z,9.70
2024-04-12T22:07:54.574Z,9.70
2024-04-12T22:11:39.754Z,9.65
2024-04-12T22:15:25.498Z,9.15
2024-04-12T22:19:10.659Z,9.90
2024-04-12T22:23:00.901Z,9.20
2024-04-12T22:26:49.896Z,9.73
2024-04-12T22:30:34.027Z,8.68
2024-04-12T22:34:22.043Z,8.80
2024-04-12T22:38:11.501Z,9.55
2024-04-12T22:41:58.489Z,9.38
2024-04-12T22:45:46.186Z,8.43
2024-04-12T22:49:34.127Z,9.98
2024-04-12T22:53:24.218Z,9.40
2024-04-12T22:57:10.784Z,9.48
2024-04-12T23:00:57.119Z,9.85
2024-04-12T23:04:43.880Z,9.45
2024-04-12T23:08:32.684Z,9.18
2024-04-12T23:12:19.805Z,10.00
2024-04-12T23:16:06.790Z,9.50
2024-04-12T23:19:51.795Z,9.80
2024-04-12T23:23:40.026Z,8.85
2024-04-12T23:27:26.613Z,8.30
2024-04-12T23:31:12.896Z,8.75
2024-04-12T23:34:59.515Z,9.02
2024-04-12T23:38:49.090Z,9.48
2024-04-12T23:42:36.981Z,8.48
2024-04-12T23:46:23.033Z,9.25
2024-04-12T23:50:09.564Z,9.68
2024-04-12T23:54:00.402Z,9.93
2024-04-12T23:57:50.753Z,9.57
